sensor_id;sensor_type;location;lat;lon;timestamp;P1;durP1;ratioP1;P2;durP2;ratioP2
75885;SDS011;64561;44.018;10.144;2023-09-07T00:02:13;4.78;;;3.20;;
75885;SDS011;64561;44.018;10.144;2023-09-07T00:04:40;5.32;;;3.55;;
75885;SDS011;64561;44.018;10.144;2023-09-07T00:07:08;5.70;;;3.72;;
75885;SDS011;64561;44.018;10.144;2023-09-07T00:09:35;3.60;;;3.20;;
75885;SDS011;64561;44.018;10.144;2023-09-07T00:12:03;3.92;;;3.03;;
75885;SDS011;64561;44.018;10.144;2023-09-07T00:14:30;3.22;;;2.83;;
75885;SDS011;64561;44.018;10.144;2023-09-07T00:16:57;4.72;;;3.10;;
75885;SDS011;64561;44.018;10.144;2023-09-07T00:19:25;5.28;;;3.30;;
75885;SDS011;64561;44.018;10.144;2023-09-07T00:21:52;5.63;;;3.35;;
75885;SDS011;64561;44.018;10.144;2023-09-07T00:24:19;4.32;;;3.35;;
75885;SDS011;64561;44.018;10.144;2023-09-07T00:26:46;4.90;;;3.17;;
75885;SDS011;64561;44.018;10.144;2023-09-07T00:29:13;5.85;;;3.40;;
75885;SDS011;64561;44.018;10.144;2023-09-07T00:31:40;4.03;;;3.45;;
75885;SDS011;64561;44.018;10.144;2023-09-07T00:34:08;5.07;;;3.42;;
75885;SDS011;64561;44.018;10.144;2023-09-07T00:36:36;4.40;;;3.17;;
75885;SDS011;64561;44.018;10.144;2023-09-07T00:39:04;4.72;;;2.78;;
75885;SDS011;64561;44.018;10.144;2023-09-07T00:41:32;3.78;;;3.13;;
75885;SDS011;64561;44.018;10.144;2023-09-07T00:43:59;6.63;;;3.00;;
75885;SDS011;64561;44.018;10.144;2023-09-07T00:46:26;6.88;;;2.85;;
75885;SDS011;64561;44.018;10.144;2023-09-07T00:48:56;4.32;;;2.97;;
75885;SDS011;64561;44.018;10.144;2023-09-07T00:51:24;4.30;;;2.65;;
75885;SDS011;64561;44.018;10.144;2023-09-07T00:53:51;3.97;;;2.97;;
75885;SDS011;64561;44.018;10.144;2023-09-07T00:56:20;3.55;;;2.80;;
75885;SDS011;64561;44.018;10.144;2023-09-07T00:58:47;3.22;;;2.60;;
75885;SDS011;64561;44.018;10.144;2023-09-07T01:01:15;4.70;;;3.28;;
75885;SDS011;64561;44.018;10.144;2023-09-07T01:03:42;3.33;;;2.70;;
75885;SDS011;64561;44.018;10.144;2023-09-07T01:06:15;4.35;;;2.85;;
75885;SDS011;64561;44.018;10.144;2023-09-07T01:08:48;3.38;;;2.70;;
75885;SDS011;64561;44.018;10.144;2023-09-07T01:11:19;3.65;;;2.78;;
75885;SDS011;64561;44.018;10.144;2023-09-07T01:13:53;3.60;;;2.67;;
75885;SDS011;64561;44.018;10.144;2023-09-07T01:16:21;3.35;;;2.78;;
75885;SDS011;64561;44.018;10.144;2023-09-07T01:18:51;4.03;;;2.58;;
75885;SDS011;64561;44.018;10.144;2023-09-07T01:21:24;5.43;;;2.97;;
75885;SDS011;64561;44.018;10.144;2023-09-07T01:23:51;4.70;;;2.50;;
75885;SDS011;64561;44.018;10.144;2023-09-07T01:26:19;6.07;;;3.00;;
75885;SDS011;64561;44.018;10.144;2023-09-07T01:28:46;5.05;;;3.35;;
75885;SDS011;64561;44.018;10.144;2023-09-07T01:31:14;4.10;;;3.00;;
75885;SDS011;64561;44.018;10.144;2023-09-07T01:33:42;4.32;;;2.90;;
75885;SDS011;64561;44.018;10.144;2023-09-07T01:36:10;5.70;;;3.20;;
75885;SDS011;64561;44.018;10.144;2023-09-07T01:38:37;4.07;;;3.13;;
75885;SDS011;64561;44.018;10.144;2023-09-07T01:41:04;5.50;;;3.70;;
75885;SDS011;64561;44.018;10.144;2023-09-07T01:43:31;6.70;;;3.58;;
75885;SDS011;64561;44.018;10.144;2023-09-07T01:45:58;4.32;;;3.10;;
75885;SDS011;64561;44.018;10.144;2023-09-07T01:48:25;5.38;;;4.65;;
75885;SDS011;64561;44.018;10.144;2023-09-07T01:50:53;5.88;;;3.22;;
75885;SDS011;64561;44.018;10.144;2023-09-07T01:53:20;4.60;;;3.25;;
75885;SDS011;64561;44.018;10.144;2023-09-07T01:55:49;5.28;;;3.53;;
75885;SDS011;64561;44.018;10.144;2023-09-07T01:58:17;3.97;;;3.00;;
75885;SDS011;64561;44.018;10.144;2023-09-07T02:00:44;5.28;;;3.00;;
75885;SDS011;64561;44.018;10.144;2023-09-07T02:03:11;3.38;;;2.78;;
75885;SDS011;64561;44.018;10.144;2023-09-07T02:05:39;3.90;;;2.80;;
75885;SDS011;64561;44.018;10.144;2023-09-07T02:08:06;4.60;;;3.03;;
75885;SDS011;64561;44.018;10.144;2023-09-07T02:10:33;6.32;;;3.20;;
75885;SDS011;64561;44.018;10.144;2023-09-07T02:13:01;5.47;;;2.90;;
75885;SDS011;64561;44.018;10.144;2023-09-07T02:15:30;3.72;;;2.58;;
75885;SDS011;64561;44.018;10.144;2023-09-07T02:18:00;4.05;;;2.80;;
75885;SDS011;64561;44.018;10.144;2023-09-07T02:20:33;5.82;;;3.10;;
75885;SDS011;64561;44.018;10.144;2023-09-07T02:23:01;4.78;;;2.80;;
75885;SDS011;64561;44.018;10.144;2023-09-07T02:25:29;6.20;;;3.58;;
75885;SDS011;64561;44.018;10.144;2023-09-07T02:27:57;3.13;;;2.33;;
75885;SDS011;64561;44.018;10.144;2023-09-07T02:30:25;4.25;;;3.03;;
75885;SDS011;64561;44.018;10.144;2023-09-07T02:32:52;6.07;;;2.70;;
75885;SDS011;64561;44.018;10.144;2023-09-07T02:35:20;4.35;;;2.97;;
75885;SDS011;64561;44.018;10.144;2023-09-07T02:37:47;5.65;;;3.40;;
75885;SDS011;64561;44.018;10.144;2023-09-07T02:40:14;4.82;;;2.67;;
75885;SDS011;64561;44.018;10.144;2023-09-07T02:42:42;3.67;;;2.30;;
75885;SDS011;64561;44.018;10.144;2023-09-07T02:45:10;5.35;;;2.55;;
75885;SDS011;64561;44.018;10.144;2023-09-07T02:47:39;4.95;;;3.42;;
75885;SDS011;64561;44.018;10.144;2023-09-07T02:50:06;4.82;;;2.40;;
75885;SDS011;64561;44.018;10.144;2023-09-07T02:52:34;3.97;;;2.40;;
75885;SDS011;64561;44.018;10.144;2023-09-07T02:55:02;3.55;;;2.33;;
75885;SDS011;64561;44.018;10.144;2023-09-07T02:57:31;9.55;;;2.65;;
75885;SDS011;64561;44.018;10.144;2023-09-07T03:00:01;5.00;;;2.42;;
75885;SDS011;64561;44.018;10.144;2023-09-07T03:02:36;6.45;;;2.92;;
75885;SDS011;64561;44.018;10.144;2023-09-07T03:05:04;5.38;;;2.70;;
75885;SDS011;64561;44.018;10.144;2023-09-07T03:07:32;4.00;;;2.55;;
75885;SDS011;64561;44.018;10.144;2023-09-07T03:10:00;3.90;;;2.83;;
75885;SDS011;64561;44.018;10.144;2023-09-07T03:12:29;4.47;;;2.78;;
75885;SDS011;64561;44.018;10.144;2023-09-07T03:14:57;3.47;;;2.63;;
75885;SDS011;64561;44.018;10.144;2023-09-07T03:17:24;4.82;;;2.67;;
75885;SDS011;64561;44.018;10.144;2023-09-07T03:19:51;4.22;;;2.60;;
75885;SDS011;64561;44.018;10.144;2023-09-07T03:22:19;3.25;;;2.72;;
75885;SDS011;64561;44.018;10.144;2023-09-07T03:24:47;4.65;;;2.80;;
75885;SDS011;64561;44.018;10.144;2023-09-07T03:27:17;4.03;;;2.63;;
75885;SDS011;64561;44.018;10.144;2023-09-07T03:29:44;3.00;;;2.15;;
75885;SDS011;64561;44.018;10.144;2023-09-07T03:32:12;4.22;;;2.25;;
75885;SDS011;64561;44.018;10.144;2023-09-07T03:34:39;3.53;;;2.60;;
75885;SDS011;64561;44.018;10.144;2023-09-07T03:37:07;4.13;;;2.40;;
75885;SDS011;64561;44.018;10.144;2023-09-07T03:39:38;3.67;;;2.65;;
75885;SDS011;64561;44.018;10.144;2023-09-07T03:42:05;4.55;;;2.60;;
75885;SDS011;64561;44.018;10.144;2023-09-07T03:44:32;3.03;;;2.20;;
75885;SDS011;64561;44.018;10.144;2023-09-07T03:47:00;4.05;;;2.45;;
75885;SDS011;64561;44.018;10.144;2023-09-07T03:49:27;6.22;;;3.00;;
75885;SDS011;64561;44.018;10.144;2023-09-07T03:51:55;4.70;;;2.70;;
75885;SDS011;64561;44.018;10.144;2023-09-07T03:54:23;4.15;;;2.67;;
75885;SDS011;64561;44.018;10.144;2023-09-07T03:56:50;4.28;;;2.40;;
75885;SDS011;64561;44.018;10.144;2023-09-07T03:59:17;4.43;;;2.90;;
75885;SDS011;64561;44.018;10.144;2023-09-07T04:01:45;4.30;;;2.40;;
75885;SDS011;64561;44.018;10.144;2023-09-07T04:04:12;5.13;;;2.92;;
75885;SDS011;64561;44.018;10.144;2023-09-07T04:06:39;3.67;;;2.10;;
75885;SDS011;64561;44.018;10.144;2023-09-07T04:09:06;3.40;;;2.50;;
75885;SDS011;64561;44.018;10.144;2023-09-07T04:11:33;3.30;;;2.40;;
75885;SDS011;64561;44.018;10.144;2023-09-07T04:14:01;3.20;;;2.22;;
75885;SDS011;64561;44.018;10.144;2023-09-07T04:16:28;4.20;;;2.72;;
75885;SDS011;64561;44.018;10.144;2023-09-07T04:18:55;4.47;;;3.63;;
75885;SDS011;64561;44.018;10.144;2023-09-07T04:21:22;6.20;;;2.90;;
75885;SDS011;64561;44.018;10.144;2023-09-07T04:23:50;4.32;;;2.83;;
75885;SDS011;64561;44.018;10.144;2023-09-07T04:26:17;7.35;;;3.13;;
75885;SDS011;64561;44.018;10.144;2023-09-07T04:28:44;7.28;;;5.88;;
75885;SDS011;64561;44.018;10.144;2023-09-07T04:31:11;11.27;;;6.72;;
75885;SDS011;64561;44.018;10.144;2023-09-07T04:33:39;6.55;;;4.03;;
75885;SDS011;64561;44.018;10.144;2023-09-07T04:38:38;12.32;;;7.90;;
75885;SDS011;64561;44.018;10.144;2023-09-07T04:41:10;9.35;;;6.00;;
75885;SDS011;64561;44.018;10.144;2023-09-07T04:43:41;10.35;;;5.60;;
75885;SDS011;64561;44.018;10.144;2023-09-07T04:46:12;16.17;;;7.90;;
75885;SDS011;64561;44.018;10.144;2023-09-07T04:48:41;21.10;;;11.88;;
75885;SDS011;64561;44.018;10.144;2023-09-07T04:51:09;26.60;;;13.05;;
75885;SDS011;64561;44.018;10.144;2023-09-07T04:53:39;51.28;;;24.80;;
75885;SDS011;64561;44.018;10.144;2023-09-07T04:56:07;44.03;;;21.77;;
75885;SDS011;64561;44.018;10.144;2023-09-07T04:58:36;40.63;;;19.92;;
75885;SDS011;64561;44.018;10.144;2023-09-07T05:01:04;40.22;;;20.23;;
75885;SDS011;64561;44.018;10.144;2023-09-07T05:03:32;30.88;;;14.60;;
75885;SDS011;64561;44.018;10.144;2023-09-07T05:06:00;16.10;;;7.85;;
75885;SDS011;64561;44.018;10.144;2023-09-07T05:08:30;15.43;;;8.55;;
75885;SDS011;64561;44.018;10.144;2023-09-07T05:10:59;16.85;;;8.77;;
75885;SDS011;64561;44.018;10.144;2023-09-07T05:13:28;16.00;;;8.00;;
75885;SDS011;64561;44.018;10.144;2023-09-07T05:15:57;14.68;;;7.95;;
75885;SDS011;64561;44.018;10.144;2023-09-07T05:18:26;9.90;;;5.40;;
75885;SDS011;64561;44.018;10.144;2023-09-07T05:20:53;8.00;;;3.85;;
75885;SDS011;64561;44.018;10.144;2023-09-07T05:23:21;6.43;;;3.83;;
75885;SDS011;64561;44.018;10.144;2023-09-07T05:25:50;8.13;;;3.78;;
75885;SDS011;64561;44.018;10.144;2023-09-07T05:28:23;6.43;;;3.55;;
75885;SDS011;64561;44.018;10.144;2023-09-07T05:30:53;6.78;;;3.42;;
75885;SDS011;64561;44.018;10.144;2023-09-07T05:33:22;7.95;;;3.85;;
75885;SDS011;64561;44.018;10.144;2023-09-07T05:35:50;8.32;;;3.90;;
75885;SDS011;64561;44.018;10.144;2023-09-07T05:38:17;7.22;;;3.67;;
75885;SDS011;64561;44.018;10.144;2023-09-07T05:40:44;5.65;;;3.55;;
75885;SDS011;64561;44.018;10.144;2023-09-07T05:43:12;10.63;;;4.32;;
75885;SDS011;64561;44.018;10.144;2023-09-07T05:45:40;6.78;;;3.58;;
75885;SDS011;64561;44.018;10.144;2023-09-07T05:48:10;12.73;;;6.18;;
75885;SDS011;64561;44.018;10.144;2023-09-07T05:50:38;11.50;;;6.75;;
75885;SDS011;64561;44.018;10.144;2023-09-07T05:53:06;20.23;;;9.07;;
75885;SDS011;64561;44.018;10.144;2023-09-07T05:55:34;26.35;;;12.20;;
75885;SDS011;64561;44.018;10.144;2023-09-07T05:58:04;43.35;;;23.63;;
75885;SDS011;64561;44.018;10.144;2023-09-07T06:00:35;41.47;;;23.27;;
75885;SDS011;64561;44.018;10.144;2023-09-07T06:03:04;45.75;;;23.67;;
75885;SDS011;64561;44.018;10.144;2023-09-07T06:05:32;37.08;;;20.77;;
75885;SDS011;64561;44.018;10.144;2023-09-07T06:08:00;20.60;;;11.23;;
75885;SDS011;64561;44.018;10.144;2023-09-07T06:10:28;15.48;;;8.75;;
75885;SDS011;64561;44.018;10.144;2023-09-07T06:12:58;15.50;;;8.00;;
75885;SDS011;64561;44.018;10.144;2023-09-07T06:15:27;11.93;;;7.28;;
75885;SDS011;64561;44.018;10.144;2023-09-07T06:17:56;12.75;;;5.72;;
75885;SDS011;64561;44.018;10.144;2023-09-07T06:20:24;13.80;;;5.63;;
75885;SDS011;64561;44.018;10.144;2023-09-07T06:22:51;10.77;;;4.60;;
75885;SDS011;64561;44.018;10.144;2023-09-07T06:25:19;10.52;;;4.20;;
75885;SDS011;64561;44.018;10.144;2023-09-07T06:27:47;6.63;;;3.20;;
75885;SDS011;64561;44.018;10.144;2023-09-07T06:30:14;7.93;;;3.42;;
75885;SDS011;64561;44.018;10.144;2023-09-07T06:32:42;5.15;;;2.55;;
75885;SDS011;64561;44.018;10.144;2023-09-07T06:35:11;6.38;;;2.80;;
75885;SDS011;64561;44.018;10.144;2023-09-07T06:37:38;4.85;;;3.03;;
75885;SDS011;64561;44.018;10.144;2023-09-07T06:40:11;7.03;;;4.80;;
75885;SDS011;64561;44.018;10.144;2023-09-07T06:42:38;7.38;;;4.57;;
75885;SDS011;64561;44.018;10.144;2023-09-07T06:45:12;6.90;;;4.15;;
75885;SDS011;64561;44.018;10.144;2023-09-07T06:47:39;6.00;;;3.83;;
75885;SDS011;64561;44.018;10.144;2023-09-07T06:50:08;5.78;;;3.50;;
75885;SDS011;64561;44.018;10.144;2023-09-07T06:52:35;5.38;;;3.10;;
75885;SDS011;64561;44.018;10.144;2023-09-07T06:55:02;3.70;;;2.90;;
75885;SDS011;64561;44.018;10.144;2023-09-07T06:57:31;3.38;;;2.50;;
75885;SDS011;64561;44.018;10.144;2023-09-07T07:00:01;4.43;;;3.10;;
75885;SDS011;64561;44.018;10.144;2023-09-07T07:02:32;4.38;;;2.63;;
75885;SDS011;64561;44.018;10.144;2023-09-07T07:05:00;3.45;;;2.85;;
75885;SDS011;64561;44.018;10.144;2023-09-07T07:07:29;5.90;;;2.83;;
75885;SDS011;64561;44.018;10.144;2023-09-07T07:09:57;3.72;;;2.42;;
75885;SDS011;64561;44.018;10.144;2023-09-07T07:12:24;4.57;;;2.53;;
75885;SDS011;64561;44.018;10.144;2023-09-07T07:14:53;5.55;;;2.60;;
75885;SDS011;64561;44.018;10.144;2023-09-07T07:17:20;4.03;;;2.65;;
75885;SDS011;64561;44.018;10.144;2023-09-07T07:19:49;3.78;;;2.75;;
75885;SDS011;64561;44.018;10.144;2023-09-07T07:22:16;3.95;;;3.10;;
75885;SDS011;64561;44.018;10.144;2023-09-07T07:24:48;4.93;;;2.80;;
75885;SDS011;64561;44.018;10.144;2023-09-07T07:27:15;3.92;;;2.83;;
75885;SDS011;64561;44.018;10.144;2023-09-07T07:29:43;4.47;;;2.58;;
75885;SDS011;64561;44.018;10.144;2023-09-07T07:32:11;3.35;;;2.47;;
75885;SDS011;64561;44.018;10.144;2023-09-07T07:34:39;3.67;;;2.78;;
75885;SDS011;64561;44.018;10.144;2023-09-07T07:37:06;3.63;;;2.70;;
75885;SDS011;64561;44.018;10.144;2023-09-07T07:39:33;4.88;;;2.85;;
75885;SDS011;64561;44.018;10.144;2023-09-07T07:42:00;6.03;;;2.80;;
75885;SDS011;64561;44.018;10.144;2023-09-07T07:44:29;4.47;;;3.15;;
75885;SDS011;64561;44.018;10.144;2023-09-07T07:46:57;4.95;;;3.17;;
75885;SDS011;64561;44.018;10.144;2023-09-07T07:49:24;4.65;;;3.40;;
75885;SDS011;64561;44.018;10.144;2023-09-07T07:51:51;7.13;;;3.38;;
75885;SDS011;64561;44.018;10.144;2023-09-07T07:54:22;6.68;;;4.05;;
75885;SDS011;64561;44.018;10.144;2023-09-07T07:56:52;9.25;;;4.25;;
75885;SDS011;64561;44.018;10.144;2023-09-07T07:59:20;7.20;;;3.88;;
75885;SDS011;64561;44.018;10.144;2023-09-07T08:01:47;9.20;;;4.32;;
75885;SDS011;64561;44.018;10.144;2023-09-07T08:04:14;6.85;;;3.65;;
75885;SDS011;64561;44.018;10.144;2023-09-07T08:06:42;6.47;;;4.22;;
75885;SDS011;64561;44.018;10.144;2023-09-07T08:09:09;9.68;;;4.35;;
75885;SDS011;64561;44.018;10.144;2023-09-07T08:11:37;9.13;;;3.90;;
75885;SDS011;64561;44.018;10.144;2023-09-07T08:14:06;6.07;;;3.90;;
75885;SDS011;64561;44.018;10.144;2023-09-07T08:16:34;7.82;;;3.63;;
75885;SDS011;64561;44.018;10.144;2023-09-07T08:19:01;7.13;;;3.95;;
75885;SDS011;64561;44.018;10.144;2023-09-07T08:21:28;6.10;;;3.47;;
75885;SDS011;64561;44.018;10.144;2023-09-07T08:23:56;7.32;;;3.63;;
75885;SDS011;64561;44.018;10.144;2023-09-07T08:26:23;10.05;;;3.63;;
75885;SDS011;64561;44.018;10.144;2023-09-07T08:28:50;4.78;;;3.50;;
75885;SDS011;64561;44.018;10.144;2023-09-07T08:31:17;8.10;;;4.13;;
75885;SDS011;64561;44.018;10.144;2023-09-07T08:33:49;6.95;;;4.10;;
75885;SDS011;64561;44.018;10.144;2023-09-07T08:36:22;5.40;;;4.00;;
75885;SDS011;64561;44.018;10.144;2023-09-07T08:38:51;4.97;;;4.00;;
75885;SDS011;64561;44.018;10.144;2023-09-07T08:41:21;5.55;;;3.75;;
75885;SDS011;64561;44.018;10.144;2023-09-07T08:43:48;4.95;;;3.83;;
75885;SDS011;64561;44.018;10.144;2023-09-07T08:46:20;4.57;;;3.72;;
75885;SDS011;64561;44.018;10.144;2023-09-07T08:48:50;8.23;;;3.65;;
75885;SDS011;64561;44.018;10.144;2023-09-07T08:51:18;4.72;;;3.50;;
75885;SDS011;64561;44.018;10.144;2023-09-07T08:53:46;4.97;;;3.50;;
75885;SDS011;64561;44.018;10.144;2023-09-07T08:56:16;5.07;;;3.47;;
75885;SDS011;64561;44.018;10.144;2023-09-07T08:58:44;5.30;;;3.80;;
75885;SDS011;64561;44.018;10.144;2023-09-07T09:01:12;4.13;;;3.58;;
75885;SDS011;64561;44.018;10.144;2023-09-07T09:03:41;5.55;;;3.92;;
75885;SDS011;64561;44.018;10.144;2023-09-07T09:06:10;7.68;;;4.70;;
75885;SDS011;64561;44.018;10.144;2023-09-07T09:08:46;5.95;;;3.58;;
75885;SDS011;64561;44.018;10.144;2023-09-07T09:11:16;5.38;;;3.80;;
75885;SDS011;64561;44.018;10.144;2023-09-07T09:13:44;4.70;;;3.42;;
75885;SDS011;64561;44.018;10.144;2023-09-07T09:16:12;5.07;;;3.40;;
75885;SDS011;64561;44.018;10.144;2023-09-07T09:18:51;3.72;;;2.92;;
75885;SDS011;64561;44.018;10.144;2023-09-07T09:21:22;4.07;;;3.60;;
75885;SDS011;64561;44.018;10.144;2023-09-07T09:23:53;5.88;;;3.70;;
75885;SDS011;64561;44.018;10.144;2023-09-07T09:26:23;6.13;;;3.92;;
75885;SDS011;64561;44.018;10.144;2023-09-07T09:28:55;4.22;;;3.70;;
75885;SDS011;64561;44.018;10.144;2023-09-07T09:31:23;5.05;;;3.25;;
75885;SDS011;64561;44.018;10.144;2023-09-07T09:33:52;7.07;;;3.85;;
75885;SDS011;64561;44.018;10.144;2023-09-07T09:36:20;4.55;;;3.45;;
75885;SDS011;64561;44.018;10.144;2023-09-07T09:38:48;4.68;;;3.25;;
75885;SDS011;64561;44.018;10.144;2023-09-07T09:41:19;5.00;;;3.42;;
75885;SDS011;64561;44.018;10.144;2023-09-07T09:43:48;3.53;;;3.03;;
75885;SDS011;64561;44.018;10.144;2023-09-07T09:46:16;4.75;;;2.95;;
75885;SDS011;64561;44.018;10.144;2023-09-07T09:48:44;3.75;;;2.90;;
75885;SDS011;64561;44.018;10.144;2023-09-07T09:51:12;3.78;;;2.80;;
75885;SDS011;64561;44.018;10.144;2023-09-07T09:53:44;3.22;;;2.63;;
75885;SDS011;64561;44.018;10.144;2023-09-07T09:56:12;4.30;;;2.90;;
75885;SDS011;64561;44.018;10.144;2023-09-07T09:58:39;3.63;;;3.10;;
75885;SDS011;64561;44.018;10.144;2023-09-07T10:01:06;4.05;;;3.05;;
75885;SDS011;64561;44.018;10.144;2023-09-07T10:03:37;6.03;;;2.95;;
75885;SDS011;64561;44.018;10.144;2023-09-07T10:06:31;3.63;;;2.88;;
75885;SDS011;64561;44.018;10.144;2023-09-07T10:09:04;4.05;;;2.70;;
75885;SDS011;64561;44.018;10.144;2023-09-07T10:11:34;2.88;;;2.33;;
75885;SDS011;64561;44.018;10.144;2023-09-07T10:14:06;3.42;;;2.50;;
75885;SDS011;64561;44.018;10.144;2023-09-07T10:16:41;3.28;;;2.60;;
75885;SDS011;64561;44.018;10.144;2023-09-07T10:19:13;3.75;;;2.80;;
75885;SDS011;64561;44.018;10.144;2023-09-07T10:21:45;3.78;;;2.65;;
75885;SDS011;64561;44.018;10.144;2023-09-07T10:29:27;5.22;;;2.83;;
75885;SDS011;64561;44.018;10.144;2023-09-07T10:31:54;3.05;;;2.72;;
75885;SDS011;64561;44.018;10.144;2023-09-07T10:34:33;2.83;;;2.50;;
75885;SDS011;64561;44.018;10.144;2023-09-07T10:37:03;3.58;;;2.75;;
75885;SDS011;64561;44.018;10.144;2023-09-07T10:39:31;4.15;;;2.90;;
75885;SDS011;64561;44.018;10.144;2023-09-07T10:41:59;4.43;;;3.05;;
75885;SDS011;64561;44.018;10.144;2023-09-07T10:44:26;3.38;;;2.70;;
75885;SDS011;64561;44.018;10.144;2023-09-07T10:46:55;8.73;;;2.70;;
75885;SDS011;64561;44.018;10.144;2023-09-07T10:49:24;4.22;;;2.63;;
75885;SDS011;64561;44.018;10.144;2023-09-07T10:51:51;3.05;;;2.75;;
75885;SDS011;64561;44.018;10.144;2023-09-07T10:54:21;3.65;;;2.63;;
75885;SDS011;64561;44.018;10.144;2023-09-07T10:56:50;3.28;;;2.45;;
75885;SDS011;64561;44.018;10.144;2023-09-07T10:59:17;3.50;;;2.70;;
75885;SDS011;64561;44.018;10.144;2023-09-07T11:01:45;2.60;;;2.30;;
75885;SDS011;64561;44.018;10.144;2023-09-07T11:04:13;3.50;;;2.22;;
75885;SDS011;64561;44.018;10.144;2023-09-07T11:06:40;3.38;;;2.45;;
75885;SDS011;64561;44.018;10.144;2023-09-07T11:09:09;3.53;;;2.72;;
75885;SDS011;64561;44.018;10.144;2023-09-07T11:11:45;4.38;;;2.70;;
75885;SDS011;64561;44.018;10.144;2023-09-07T11:14:14;4.20;;;2.53;;
75885;SDS011;64561;44.018;10.144;2023-09-07T11:16:41;4.85;;;2.58;;
75885;SDS011;64561;44.018;10.144;2023-09-07T11:19:10;4.32;;;2.60;;
75885;SDS011;64561;44.018;10.144;2023-09-07T11:21:37;4.10;;;3.42;;
75885;SDS011;64561;44.018;10.144;2023-09-07T11:24:04;3.40;;;2.90;;
75885;SDS011;64561;44.018;10.144;2023-09-07T11:26:42;3.13;;;2.50;;
75885;SDS011;64561;44.018;10.144;2023-09-07T11:29:16;3.45;;;2.45;;
75885;SDS011;64561;44.018;10.144;2023-09-07T11:31:45;5.35;;;2.75;;
75885;SDS011;64561;44.018;10.144;2023-09-07T11:34:14;3.67;;;2.50;;
75885;SDS011;64561;44.018;10.144;2023-09-07T11:36:44;3.70;;;2.50;;
75885;SDS011;64561;44.018;10.144;2023-09-07T11:39:11;4.50;;;3.72;;
75885;SDS011;64561;44.018;10.144;2023-09-07T11:41:44;3.33;;;2.50;;
75885;SDS011;64561;44.018;10.144;2023-09-07T11:44:11;4.63;;;2.83;;
75885;SDS011;64561;44.018;10.144;2023-09-07T11:46:39;4.78;;;2.63;;
75885;SDS011;64561;44.018;10.144;2023-09-07T11:49:07;3.40;;;2.30;;
75885;SDS011;64561;44.018;10.144;2023-09-07T11:51:37;3.80;;;2.47;;
75885;SDS011;64561;44.018;10.144;2023-09-07T11:54:04;2.85;;;2.40;;
75885;SDS011;64561;44.018;10.144;2023-09-07T11:56:34;3.40;;;2.20;;
75885;SDS011;64561;44.018;10.144;2023-09-07T11:59:06;2.85;;;2.30;;
75885;SDS011;64561;44.018;10.144;2023-09-07T12:01:33;4.90;;;2.33;;
75885;SDS011;64561;44.018;10.144;2023-09-07T12:04:01;3.25;;;2.40;;
75885;SDS011;64561;44.018;10.144;2023-09-07T12:06:28;4.22;;;2.28;;
75885;SDS011;64561;44.018;10.144;2023-09-07T12:08:59;4.35;;;2.28;;
75885;SDS011;64561;44.018;10.144;2023-09-07T12:11:31;3.38;;;2.60;;
75885;SDS011;64561;44.018;10.144;2023-09-07T12:13:58;3.83;;;2.15;;
75885;SDS011;64561;44.018;10.144;2023-09-07T12:16:26;2.97;;;2.30;;
75885;SDS011;64561;44.018;10.144;2023-09-07T12:18:54;3.90;;;2.63;;
75885;SDS011;64561;44.018;10.144;2023-09-07T12:21:22;3.30;;;2.20;;
75885;SDS011;64561;44.018;10.144;2023-09-07T12:23:50;3.22;;;2.20;;
75885;SDS011;64561;44.018;10.144;2023-09-07T12:26:18;5.85;;;2.33;;
75885;SDS011;64561;44.018;10.144;2023-09-07T12:28:48;3.33;;;2.50;;
75885;SDS011;64561;44.018;10.144;2023-09-07T12:31:15;2.95;;;2.40;;
75885;SDS011;64561;44.018;10.144;2023-09-07T12:33:44;3.10;;;2.30;;
75885;SDS011;64561;44.018;10.144;2023-09-07T12:36:11;3.85;;;2.35;;
75885;SDS011;64561;44.018;10.144;2023-09-07T12:38:39;3.05;;;2.53;;
75885;SDS011;64561;44.018;10.144;2023-09-07T12:41:06;3.15;;;2.60;;
75885;SDS011;64561;44.018;10.144;2023-09-07T12:43:33;3.38;;;2.63;;
75885;SDS011;64561;44.018;10.144;2023-09-07T12:46:01;3.45;;;2.42;;
75885;SDS011;64561;44.018;10.144;2023-09-07T12:48:29;3.47;;;2.63;;
75885;SDS011;64561;44.018;10.144;2023-09-07T12:50:56;4.47;;;2.47;;
75885;SDS011;64561;44.018;10.144;2023-09-07T12:53:23;3.83;;;2.90;;
75885;SDS011;64561;44.018;10.144;2023-09-07T12:55:53;3.92;;;2.70;;
75885;SDS011;64561;44.018;10.144;2023-09-07T12:58:21;4.47;;;3.22;;
75885;SDS011;64561;44.018;10.144;2023-09-07T13:00:48;5.05;;;3.10;;
75885;SDS011;64561;44.018;10.144;2023-09-07T13:03:19;4.68;;;2.97;;
75885;SDS011;64561;44.018;10.144;2023-09-07T13:05:47;4.07;;;2.70;;
75885;SDS011;64561;44.018;10.144;2023-09-07T13:08:15;3.70;;;2.80;;
75885;SDS011;64561;44.018;10.144;2023-09-07T13:10:42;4.85;;;2.72;;
75885;SDS011;64561;44.018;10.144;2023-09-07T13:13:09;4.75;;;2.63;;
75885;SDS011;64561;44.018;10.144;2023-09-07T13:15:37;3.40;;;2.40;;
75885;SDS011;64561;44.018;10.144;2023-09-07T13:18:04;4.88;;;2.42;;
75885;SDS011;64561;44.018;10.144;2023-09-07T13:20:31;3.05;;;2.55;;
75885;SDS011;64561;44.018;10.144;2023-09-07T13:22:59;4.60;;;3.17;;
75885;SDS011;64561;44.018;10.144;2023-09-07T13:25:27;3.95;;;2.38;;
75885;SDS011;64561;44.018;10.144;2023-09-07T13:27:54;4.72;;;2.90;;
75885;SDS011;64561;44.018;10.144;2023-09-07T13:30:26;5.60;;;2.80;;
75885;SDS011;64561;44.018;10.144;2023-09-07T13:32:53;3.42;;;2.67;;
75885;SDS011;64561;44.018;10.144;2023-09-07T13:35:20;4.00;;;2.75;;
75885;SDS011;64561;44.018;10.144;2023-09-07T13:37:47;5.97;;;2.95;;
75885;SDS011;64561;44.018;10.144;2023-09-07T13:40:15;3.85;;;2.85;;
75885;SDS011;64561;44.018;10.144;2023-09-07T13:42:42;3.20;;;2.60;;
75885;SDS011;64561;44.018;10.144;2023-09-07T13:45:10;5.25;;;2.78;;
75885;SDS011;64561;44.018;10.144;2023-09-07T13:47:37;3.63;;;2.88;;
75885;SDS011;64561;44.018;10.144;2023-09-07T13:50:05;3.13;;;2.80;;
75885;SDS011;64561;44.018;10.144;2023-09-07T13:52:33;3.88;;;2.90;;
75885;SDS011;64561;44.018;10.144;2023-09-07T13:55:00;3.97;;;2.92;;
75885;SDS011;64561;44.018;10.144;2023-09-07T13:57:27;4.10;;;2.60;;
75885;SDS011;64561;44.018;10.144;2023-09-07T13:59:54;3.63;;;2.60;;
75885;SDS011;64561;44.018;10.144;2023-09-07T14:02:21;4.38;;;2.95;;
75885;SDS011;64561;44.018;10.144;2023-09-07T14:04:49;5.43;;;2.72;;
75885;SDS011;64561;44.018;10.144;2023-09-07T14:07:18;4.25;;;2.40;;
75885;SDS011;64561;44.018;10.144;2023-09-07T14:09:46;3.75;;;2.83;;
75885;SDS011;64561;44.018;10.144;2023-09-07T14:12:13;3.85;;;3.05;;
75885;SDS011;64561;44.018;10.144;2023-09-07T14:14:40;3.95;;;2.50;;
75885;SDS011;64561;44.018;10.144;2023-09-07T14:17:07;4.38;;;2.50;;
75885;SDS011;64561;44.018;10.144;2023-09-07T14:19:35;3.17;;;2.28;;
75885;SDS011;64561;44.018;10.144;2023-09-07T14:22:02;3.45;;;2.80;;
75885;SDS011;64561;44.018;10.144;2023-09-07T14:24:30;6.22;;;2.60;;
75885;SDS011;64561;44.018;10.144;2023-09-07T14:26:59;2.95;;;2.35;;
75885;SDS011;64561;44.018;10.144;2023-09-07T14:29:27;3.83;;;2.60;;
75885;SDS011;64561;44.018;10.144;2023-09-07T14:31:56;4.65;;;2.63;;
75885;SDS011;64561;44.018;10.144;2023-09-07T14:34:24;4.03;;;2.33;;
75885;SDS011;64561;44.018;10.144;2023-09-07T14:36:51;3.85;;;2.42;;
75885;SDS011;64561;44.018;10.144;2023-09-07T14:39:18;5.05;;;2.78;;
75885;SDS011;64561;44.018;10.144;2023-09-07T14:41:50;4.35;;;2.20;;
75885;SDS011;64561;44.018;10.144;2023-09-07T14:44:22;3.30;;;2.40;;
75885;SDS011;64561;44.018;10.144;2023-09-07T14:46:52;5.88;;;3.28;;
75885;SDS011;64561;44.018;10.144;2023-09-07T14:49:19;3.35;;;2.55;;